Time;durP1;ratioP1;P1;durP2;ratioP2;P2;SDS_P1;SDS_P2;PMS_P1;PMS_P2;Temp;Humidity;BMP_temperature;BMP_pressure;BME280_temperature;BME280_humidity;BME280_pressure;Samples;Min_cycle;Max_cycle;Signal;HPM_P1;HPM_P2
2022/07/11 00:00:00;;;;;;;;;;;21.10;63.50;;;;;;6252697;23;20038;-93
2022/07/11 00:02:43;;;;;;;;;;;21.10;63.60;;;;;;6230451;23;20227;-92
2022/07/11 00:05:12;;;;;;;;;;;21.10;63.70;;;;;;6226459;23;19923;-92
2022/07/11 00:07:58;;;;;;;;;;;21.10;63.80;;;;;;6227145;23;19904;-90
2022/07/11 00:10:25;;;;;;;;;;;21.10;63.90;;;;;;6226053;23;19912;-91
2022/07/11 00:12:50;;;;;;;;;;;21.10;64.00;;;;;;6252747;23;20343;-91
2022/07/11 00:15:16;;;;;;;;;;;21.10;64.00;;;;;;6254475;22;19912;-92
2022/07/11 00:17:41;;;;;;;;;;;21.20;64.10;;;;;;6250288;23;19931;-92
2022/07/11 00:20:07;;;;;;;;;;;21.20;64.10;;;;;;6227020;22;19904;-92
2022/07/11 00:22:33;;;;;;;;;;;21.30;64.10;;;;;;6225322;23;19918;-92
2022/07/11 00:24:58;;;;;;;;;;;21.30;64.00;;;;;;6251908;23;20221;-92
2022/07/11 00:27:24;;;;;;;;;;;21.30;64.00;;;;;;6252345;22;19915;-91
2022/07/11 00:30:00;;;;;;;;;;;21.30;64.00;;;;;;6250281;23;20359;-90
2022/07/11 00:32:28;;;;;;;;;;;21.40;64.00;;;;;;6238777;23;20281;-91
2022/07/11 00:34:53;;;;;;;;;;;21.40;64.10;;;;;;6224785;23;19907;-90
2022/07/11 00:37:19;;;;;;;;;;;21.50;64.10;;;;;;6249794;23;19946;-90
2022/07/11 00:39:44;;;;;;;;;;;21.60;64.30;;;;;;6250147;23;20222;-91
2022/07/11 00:42:10;;;;;;;;;;;21.60;64.10;;;;;;6250026;23;19912;-91
2022/07/11 00:44:38;;;;;;;;;;;21.60;63.80;;;;;;6250498;23;19938;-91
2022/07/11 00:47:04;;;;;;;;;;;21.60;63.80;;;;;;6252452;23;19907;-91
2022/07/11 00:49:40;;;;;;;;;;;21.70;63.90;;;;;;6253431;23;19908;-91
2022/07/11 00:52:06;;;;;;;;;;;21.70;63.80;;;;;;6256010;22;19914;-91
2022/07/11 00:54:31;;;;;;;;;;;21.70;63.80;;;;;;6251904;23;19982;-91
2022/07/11 00:57:00;;;;;;;;;;;21.80;63.90;;;;;;6227029;23;20355;-91
2022/07/11 00:59:27;;;;;;;;;;;21.80;63.90;;;;;;6253419;23;19912;-91
2022/07/11 01:01:53;;;;;;;;;;;21.70;63.80;;;;;;6252437;22;19912;-91
2022/07/11 01:04:19;;;;;;;;;;;21.80;63.80;;;;;;6253031;23;19931;-90
2022/07/11 01:06:46;;;;;;;;;;;21.80;63.90;;;;;;6226227;23;20050;-90
2022/07/11 01:09:12;;;;;;;;;;;21.80;63.90;;;;;;6254630;23;19908;-90
2022/07/11 01:11:38;;;;;;;;;;;21.90;64.20;;;;;;6263482;23;19924;-89
2022/07/11 01:14:05;;;;;;;;;;;22.00;64.00;;;;;;6253797;23;20358;-90
2022/07/11 01:16:31;;;;;;;;;;;22.00;63.90;;;;;;6251248;22;19911;-90
2022/07/11 01:18:56;;;;;;;;;;;22.00;63.60;;;;;;6249157;23;19915;-89
2022/07/11 01:21:25;;;;;;;;;;;22.00;63.60;;;;;;6249960;23;19965;-91
2022/07/11 01:23:52;;;;;;;;;;;22.00;63.80;;;;;;6254626;23;19911;-91
2022/07/11 01:26:19;;;;;;;;;;;22.00;63.80;;;;;;6226445;23;19912;-88
2022/07/11 01:28:45;;;;;;;;;;;21.90;63.80;;;;;;6224207;23;19995;-90
2022/07/11 01:31:12;;;;;;;;;;;21.90;63.90;;;;;;6248706;23;19916;-90
2022/07/11 01:33:37;;;;;;;;;;;21.90;63.90;;;;;;6222934;23;19923;-90
2022/07/11 01:36:03;;;;;;;;;;;21.80;63.90;;;;;;6248777;23;19923;-90
2022/07/11 01:38:32;;;;;;;;;;;21.80;63.90;;;;;;6223492;23;19998;-89
2022/07/11 01:40:57;;;;;;;;;;;21.80;63.90;;;;;;6249467;22;19912;-89
2022/07/11 01:43:23;;;;;;;;;;;21.70;64.00;;;;;;6247742;23;19934;-90
2022/07/11 01:45:55;;;;;;;;;;;21.70;64.10;;;;;;6221676;23;19943;-90
2022/07/11 01:48:21;;;;;;;;;;;21.60;64.30;;;;;;6249380;23;20327;-90
2022/07/11 01:50:50;;;;;;;;;;;21.60;64.50;;;;;;6252444;22;19986;-90
2022/07/11 01:53:16;;;;;;;;;;;21.60;64.50;;;;;;6225687;23;19953;-90
2022/07/11 01:55:42;;;;;;;;;;;21.60;64.60;;;;;;6250370;22;19911;-89
2022/07/11 01:58:07;;;;;;;;;;;21.60;64.50;;;;;;6220730;23;19911;-89
2022/07/11 02:00:33;;;;;;;;;;;21.60;64.60;;;;;;6221469;23;19926;-89
2022/07/11 02:02:58;;;;;;;;;;;21.60;64.60;;;;;;6249051;22;19914;-90
2022/07/11 02:05:24;;;;;;;;;;;21.60;64.50;;;;;;6248186;23;19912;-90
2022/07/11 02:08:14;;;;;;;;;;;21.60;64.30;;;;;;6249921;23;19962;-89
2022/07/11 02:10:46;;;;;;;;;;;21.60;64.10;;;;;;6251810;23;19919;-90
2022/07/11 02:13:13;;;;;;;;;;;21.50;64.30;;;;;;6223966;23;19958;-90
2022/07/11 02:15:39;;;;;;;;;;;21.50;64.30;;;;;;6223669;23;20343;-90
2022/07/11 02:18:05;;;;;;;;;;;21.50;64.40;;;;;;6223508;23;19939;-90
2022/07/11 02:20:30;;;;;;;;;;;21.60;64.60;;;;;;6222154;23;20288;-90
2022/07/11 02:22:58;;;;;;;;;;;21.70;64.60;;;;;;6248439;23;19912;-90
2022/07/11 02:25:24;;;;;;;;;;;21.80;64.50;;;;;;6249940;23;20010;-90
2022/07/11 02:27:50;;;;;;;;;;;21.80;64.40;;;;;;6223052;23;19908;-90
2022/07/11 02:30:15;;;;;;;;;;;21.90;64.60;;;;;;6248061;23;19919;-90
2022/07/11 02:32:41;;;;;;;;;;;21.90;64.40;;;;;;6247857;23;20313;-90
2022/07/11 02:35:09;;;;;;;;;;;21.90;64.20;;;;;;6223416;23;19911;-90
2022/07/11 02:37:35;;;;;;;;;;;21.90;64.10;;;;;;6223302;23;20269;-90
2022/07/11 02:40:00;;;;;;;;;;;21.90;64.00;;;;;;6249414;22;19931;-90
2022/07/11 02:42:26;;;;;;;;;;;21.90;64.20;;;;;;6222166;23;19907;-90
2022/07/11 02:44:51;;;;;;;;;;;21.80;64.30;;;;;;6250364;22;19908;-90
2022/07/11 02:47:20;;;;;;;;;;;21.90;64.50;;;;;;6249339;23;19907;-90
2022/07/11 02:49:47;;;;;;;;;;;22.00;64.60;;;;;;6250248;22;19919;-90
2022/07/11 02:52:13;;;;;;;;;;;22.10;64.50;;;;;;6248449;23;20304;-90
2022/07/11 02:55:00;;;;;;;;;;;22.10;64.40;;;;;;6226565;23;19904;-90
2022/07/11 02:57:26;;;;;;;;;;;22.10;64.30;;;;;;6251883;23;20288;-90
2022/07/11 02:59:51;;;;;;;;;;;22.20;64.40;;;;;;6227390;23;19911;-88
2022/07/11 03:02:17;;;;;;;;;;;22.10;64.30;;;;;;6247843;23;19958;-88
2022/07/11 03:04:42;;;;;;;;;;;22.10;64.30;;;;;;6249621;23;19912;-88
2022/07/11 03:07:09;;;;;;;;;;;22.00;64.40;;;;;;6249895;22;19915;-89
2022/07/11 03:09:35;;;;;;;;;;;22.00;64.40;;;;;;6249949;23;20206;-89
2022/07/11 03:12:01;;;;;;;;;;;22.00;64.60;;;;;;6250189;22;19934;-90
2022/07/11 03:14:27;;;;;;;;;;;21.90;64.70;;;;;;6247972;23;19908;-90
2022/07/11 03:16:52;;;;;;;;;;;21.90;64.90;;;;;;6247912;23;19959;-89
2022/07/11 03:19:17;;;;;;;;;;;21.80;64.90;;;;;;6249094;23;19914;-89
2022/07/11 03:21:43;;;;;;;;;;;21.80;64.90;;;;;;6249120;23;20005;-89
2022/07/11 03:24:11;;;;;;;;;;;21.80;64.90;;;;;;6250116;23;20320;-90
2022/07/11 03:26:38;;;;;;;;;;;21.80;64.90;;;;;;6253106;23;20311;-89
2022/07/11 03:29:04;;;;;;;;;;;21.80;65.00;;;;;;6250810;23;19986;-90
2022/07/11 03:31:34;;;;;;;;;;;21.80;65.00;;;;;;6223565;23;19911;-90
2022/07/11 03:34:00;;;;;;;;;;;21.80;65.00;;;;;;6250629;22;19918;-90
2022/07/11 03:36:26;;;;;;;;;;;21.90;65.00;;;;;;6247708;23;20335;-90
2022/07/11 03:38:54;;;;;;;;;;;21.90;65.00;;;;;;6248558;23;20321;-90
2022/07/11 03:41:20;;;;;;;;;;;22.00;64.80;;;;;;6222851;23;19918;-90
2022/07/11 03:43:45;;;;;;;;;;;22.00;64.80;;;;;;6249336;22;19911;-89
2022/07/11 03:46:14;;;;;;;;;;;22.00;64.80;;;;;;6247649;23;19907;-89
2022/07/11 03:48:39;;;;;;;;;;;22.00;64.90;;;;;;6248393;23;19912;-88
2022/07/11 03:51:05;;;;;;;;;;;22.10;64.80;;;;;;6247380;23;19911;-88
2022/07/11 03:53:30;;;;;;;;;;;22.10;64.80;;;;;;6247359;23;19912;-88
2022/07/11 03:55:56;;;;;;;;;;;22.10;64.80;;;;;;6222239;23;19908;-88
2022/07/11 03:58:21;;;;;;;;;;;22.20;64.70;;;;;;6247560;23;19920;-88
2022/07/11 04:00:47;;;;;;;;;;;22.10;64.50;;;;;;6247527;23;20155;-89
2022/07/11 04:03:15;;;;;;;;;;;22.10;64.40;;;;;;6247488;23;20282;-89
2022/07/11 04:05:40;;;;;;;;;;;22.00;64.50;;;;;;6222881;23;19911;-89
2022/07/11 04:08:06;;;;;;;;;;;22.00;64.60;;;;;;6247234;23;19986;-89
2022/07/11 04:10:34;;;;;;;;;;;22.10;64.60;;;;;;6249890;23;20339;-91
2022/07/11 04:13:02;;;;;;;;;;;22.10;64.70;;;;;;6248860;23;19912;-90
2022/07/11 04:15:28;;;;;;;;;;;22.10;64.70;;;;;;6253597;23;19908;-89
2022/07/11 04:17:53;;;;;;;;;;;22.10;64.80;;;;;;6224906;23;19984;-89
2022/07/11 04:20:21;;;;;;;;;;;22.10;64.80;;;;;;6221918;23;21943;-89
2022/07/11 04:22:46;;;;;;;;;;;22.10;64.70;;;;;;6247081;23;19938;-90
2022/07/11 04:25:12;;;;;;;;;;;22.10;64.80;;;;;;6247556;23;20326;-89
2022/07/11 04:27:37;;;;;;;;;;;22.20;64.80;;;;;;6247500;23;19908;-89
2022/07/11 04:30:06;;;;;;;;;;;22.20;64.80;;;;;;6247390;23;19934;-89
2022/07/11 04:32:31;;;;;;;;;;;22.20;64.60;;;;;;6223561;23;19990;-89
2022/07/11 04:34:57;;;;;;;;;;;22.20;64.70;;;;;;6248080;23;19915;-89
2022/07/11 04:37:23;;;;;;;;;;;22.20;64.70;;;;;;6247457;22;19908;-89
2022/07/11 04:39:48;;;;;;;;;;;22.20;64.80;;;;;;6222441;23;19914;-89
2022/07/11 04:42:17;;;;;;;;;;;22.20;64.80;;;;;;6247124;22;19904;-89
2022/07/11 04:44:42;;;;;;;;;;;22.20;64.90;;;;;;6250191;22;20326;-89
2022/07/11 04:47:07;;;;;;;;;;;22.20;64.90;;;;;;6248562;23;19907;-89
2022/07/11 04:49:33;;;;;;;;;;;22.30;64.80;;;;;;6247246;23;20325;-89
2022/07/11 04:51:59;;;;;;;;;;;22.30;64.80;;;;;;6250113;23;19934;-89
2022/07/11 04:54:27;;;;;;;;;;;22.30;64.80;;;;;;6249092;22;19908;-89
2022/07/11 04:56:52;;;;;;;;;;;22.30;65.00;;;;;;6247731;23;19992;-89
2022/07/11 04:59:18;;;;;;;;;;;22.30;65.10;;;;;;6250017;22;19904;-89
2022/07/11 05:01:44;;;;;;;;;;;22.40;65.00;;;;;;6249646;23;19912;-89
2022/07/11 05:04:09;;;;;;;;;;;22.50;65.00;;;;;;6249765;22;19903;-89
2022/07/11 05:06:35;;;;;;;;;;;22.50;64.90;;;;;;6249224;23;20233;-89
2022/07/11 05:09:02;;;;;;;;;;;22.50;64.70;;;;;;6250744;23;19931;-89
2022/07/11 05:11:30;;;;;;;;;;;22.50;64.40;;;;;;6248553;23;19911;-89
2022/07/11 05:13:56;;;;;;;;;;;22.40;64.00;;;;;;6248456;23;19909;-89
2022/07/11 05:16:21;;;;;;;;;;;22.30;64.20;;;;;;6248843;22;20353;-88
2022/07/11 05:18:47;;;;;;;;;;;22.30;64.30;;;;;;6223107;23;19915;-89
2022/07/11 05:21:12;;;;;;;;;;;22.20;64.70;;;;;;6222031;23;19920;-89
2022/07/11 05:23:37;;;;;;;;;;;22.10;64.60;;;;;;6247708;23;19903;-89
2022/07/11 05:26:10;;;;;;;;;;;22.00;65.00;;;;;;6249856;22;19912;-91
2022/07/11 05:28:36;;;;;;;;;;;21.90;65.00;;;;;;6224928;23;19908;-92
2022/07/11 05:31:02;;;;;;;;;;;21.80;65.20;;;;;;6250584;23;19915;-92
2022/07/11 05:33:28;;;;;;;;;;;21.80;65.10;;;;;;6250174;23;19907;-93
2022/07/11 05:35:54;;;;;;;;;;;21.70;64.80;;;;;;6250874;23;19912;-92
2022/07/11 05:38:22;;;;;;;;;;;21.50;64.50;;;;;;6223805;23;19922;-91
2022/07/11 05:40:47;;;;;;;;;;;21.40;64.80;;;;;;6252742;23;19903;-92
2022/07/11 05:43:13;;;;;;;;;;;21.30;65.20;;;;;;6252926;23;19958;-92
2022/07/11 05:45:39;;;;;;;;;;;21.30;65.20;;;;;;6253779;23;20271;-92
2022/07/11 05:51:40;;;;;;;;;;;21.10;65.00;;;;;;6163915;23;19909;-93
2022/07/11 05:54:11;;;;;;;;;;;20.80;64.80;;;;;;6139689;23;19915;-93
2022/07/11 05:56:42;;;;;;;;;;;20.80;65.10;;;;;;6226381;23;19919;-92
2022/07/11 05:59:08;;;;;;;;;;;20.70;65.40;;;;;;6229409;23;19997;-93
2022/07/11 06:01:34;;;;;;;;;;;20.70;65.60;;;;;;6255949;23;19914;-93
2022/07/11 06:04:03;;;;;;;;;;;20.70;65.30;;;;;;6229923;23;19959;-93
2022/07/11 06:06:32;;;;;;;;;;;20.70;65.60;;;;;;6254700;23;19934;-93
2022/07/11 06:08:58;;;;;;;;;;;20.60;66.00;;;;;;6229646;23;19914;-93
2022/07/11 06:11:23;;;;;;;;;;;20.70;66.10;;;;;;6254289;22;20228;-92
2022/07/11 06:13:55;;;;;;;;;;;20.70;66.00;;;;;;6254249;23;19957;-93
2022/07/11 06:16:23;;;;;;;;;;;20.70;66.10;;;;;;6229494;22;20279;-93
2022/07/11 06:18:48;;;;;;;;;;;20.80;66.40;;;;;;6252582;23;19907;-91
2022/07/11 06:21:17;;;;;;;;;;;20.90;66.50;;;;;;6250918;22;19942;-92
2022/07/11 06:23:45;;;;;;;;;;;21.00;66.40;;;;;;6226205;23;19918;-91
2022/07/11 06:26:11;;;;;;;;;;;21.10;66.60;;;;;;6224350;22;19962;-92
2022/07/11 06:28:38;;;;;;;;;;;21.30;66.60;;;;;;6249548;23;19907;-91
2022/07/11 06:31:03;;;;;;;;;;;21.50;66.60;;;;;;6225692;22;19969;-92
2022/07/11 06:33:29;;;;;;;;;;;21.70;66.70;;;;;;6251242;23;19986;-92
2022/07/11 06:35:54;;;;;;;;;;;21.90;66.50;;;;;;6250977;23;19977;-92
2022/07/11 06:38:20;;;;;;;;;;;22.00;66.60;;;;;;6249645;23;19903;-92
2022/07/11 06:40:49;;;;;;;;;;;22.20;66.40;;;;;;6249702;23;20267;-92
2022/07/11 06:43:14;;;;;;;;;;;22.40;66.50;;;;;;6251908;22;19935;-93
2022/07/11 06:45:40;;;;;;;;;;;22.60;66.80;;;;;;6224582;23;19985;-92
2022/07/11 06:48:06;;;;;;;;;;;22.80;66.90;;;;;;6248122;23;19907;-92
2022/07/11 06:50:32;;;;;;;;;;;23.10;66.60;;;;;;6250712;23;19908;-92
2022/07/11 06:52:57;;;;;;;;;;;23.30;66.40;;;;;;6222666;23;19942;-92
2022/07/11 06:55:23;;;;;;;;;;;23.50;66.10;;;;;;6223591;23;19923;-91
2022/07/11 06:57:51;;;;;;;;;;;23.80;66.20;;;;;;6247218;23;20019;-91
2022/07/11 07:00:19;;;;;;;;;;;24.10;66.40;;;;;;6249137;23;19918;-91
2022/07/11 07:02:45;;;;;;;;;;;24.40;66.40;;;;;;6223214;23;20320;-91
2022/07/11 07:05:11;;;;;;;;;;;24.70;66.50;;;;;;6222351;23;19915;-91
2022/07/11 07:07:37;;;;;;;;;;;25.00;66.20;;;;;;6222107;23;19957;-90
2022/07/11 07:10:02;;;;;;;;;;;25.30;66.10;;;;;;6248629;23;20374;-90
2022/07/11 07:12:28;;;;;;;;;;;25.60;66.70;;;;;;6246639;23;19911;-91
2022/07/11 07:14:53;;;;;;;;;;;25.90;65.60;;;;;;6245930;23;19915;-90
2022/07/11 07:17:19;;;;;;;;;;;26.10;64.20;;;;;;6247160;23;19907;-90
2022/07/11 07:19:45;;;;;;;;;;;26.20;64.10;;;;;;6245830;23;20400;-91
2022/07/11 07:22:11;;;;;;;;;;;26.20;62.10;;;;;;6220496;23;19908;-90
2022/07/11 07:24:36;;;;;;;;;;;26.00;60.70;;;;;;6247680;22;19920;-90
2022/07/11 07:27:05;;;;;;;;;;;25.80;60.10;;;;;;6247663;23;19935;-90
2022/07/11 07:29:33;;;;;;;;;;;25.70;60.50;;;;;;6222377;23;19912;-91
2022/07/11 07:31:59;;;;;;;;;;;25.70;61.40;;;;;;6223524;23;19912;-90
2022/07/11 07:34:25;;;;;;;;;;;25.60;59.70;;;;;;6222369;23;19990;-90
2022/07/11 07:36:51;;;;;;;;;;;25.60;60.40;;;;;;6222103;23;20268;-90
2022/07/11 07:39:19;;;;;;;;;;;25.50;60.50;;;;;;6222707;23;19946;-90
2022/07/11 07:41:44;;;;;;;;;;;25.50;60.50;;;;;;6221156;23;19907;-89
2022/07/11 07:44:10;;;;;;;;;;;25.40;60.40;;;;;;6220390;23;20202;-89
2022/07/11 07:46:36;;;;;;;;;;;25.50;61.70;;;;;;6245309;23;20342;-89
2022/07/11 07:49:02;;;;;;;;;;;25.60;61.30;;;;;;6245787;23;19911;-89
2022/07/11 07:51:28;;;;;;;;;;;25.70;60.20;;;;;;6244093;23;19903;-89
2022/07/11 07:53:54;;;;;;;;;;;25.80;61.60;;;;;;6220943;23;19937;-90
2022/07/11 07:56:20;;;;;;;;;;;26.00;62.50;;;;;;6246194;23;19911;-89
2022/07/11 07:58:45;;;;;;;;;;;26.10;62.60;;;;;;6248577;22;19922;-90
2022/07/11 08:03:55;;;;;;;;;;;26.20;60.10;;;;;;6246491;23;19922;-88
2022/07/11 08:06:20;;;;;;;;;;;26.10;58.00;;;;;;6247779;23;19931;-90
2022/07/11 08:08:46;;;;;;;;;;;26.00;58.00;;;;;;6246644;23;19912;-90
2022/07/11 08:11:11;;;;;;;;;;;26.00;60.20;;;;;;6246449;23;20228;-89
2022/07/11 08:13:37;;;;;;;;;;;26.10;60.90;;;;;;6246317;23;20202;-89
2022/07/11 08:16:06;;;;;;;;;;;26.20;58.80;;;;;;6245973;23;19926;-88
2022/07/11 08:18:32;;;;;;;;;;;26.30;59.10;;;;;;6244277;23;20377;-88
2022/07/11 08:20:58;;;;;;;;;;;26.30;58.10;;;;;;6219726;23;20565;-88
2022/07/11 08:23:23;;;;;;;;;;;26.40;58.40;;;;;;6245664;23;19907;-88
2022/07/11 08:25:49;;;;;;;;;;;26.60;59.00;;;;;;6247461;22;19958;-88
2022/07/11 08:28:14;;;;;;;;;;;26.80;59.10;;;;;;6242967;23;19947;-89
2022/07/11 08:30:40;;;;;;;;;;;27.00;59.50;;;;;;6242817;23;19911;-88
2022/07/11 08:33:05;;;;;;;;;;;27.30;58.20;;;;;;6244829;23;19960;-88
2022/07/11 08:35:31;;;;;;;;;;;27.50;57.30;;;;;;6244906;22;19920;-88
2022/07/11 08:37:57;;;;;;;;;;;27.70;57.60;;;;;;6243165;23;19914;-89
2022/07/11 08:40:23;;;;;;;;;;;28.00;57.60;;;;;;6243549;23;19931;-88
2022/07/11 08:42:49;;;;;;;;;;;28.20;57.10;;;;;;6243486;23;19907;-88
2022/07/11 08:45:15;;;;;;;;;;;28.40;56.30;;;;;;6243768;22;19978;-88
2022/07/11 08:47:40;;;;;;;;;;;28.60;54.70;;;;;;6247090;23;19977;-88
2022/07/11 08:50:07;;;;;;;;;;;28.70;54.60;;;;;;6217949;22;19990;-88
2022/07/11 08:52:33;;;;;;;;;;;28.70;54.30;;;;;;6244815;23;20335;-87
2022/07/11 08:55:00;;;;;;;;;;;28.70;52.80;;;;;;6217846;23;19908;-88
2022/07/11 08:57:26;;;;;;;;;;;28.60;52.20;;;;;;6243151;23;19912;-88
2022/07/11 08:59:54;;;;;;;;;;;28.40;52.40;;;;;;6244161;23;19926;-88
2022/07/11 09:02:20;;;;;;;;;;;28.30;51.90;;;;;;6219467;23;19970;-88
2022/07/11 09:04:46;;;;;;;;;;;28.20;52.20;;;;;;6246312;23;19911;-88
2022/07/11 09:07:12;;;;;;;;;;;28.10;51.10;;;;;;6247345;22;19913;-88
2022/07/11 09:09:37;;;;;;;;;;;28.00;51.60;;;;;;6246652;23;19904;-89
2022/07/11 09:12:09;;;;;;;;;;;28.10;51.60;;;;;;6244582;23;19916;-88
2022/07/11 09:14:35;;;;;;;;;;;28.00;51.20;;;;;;6222463;23;19904;-87
2022/07/11 09:17:02;;;;;;;;;;;28.00;50.50;;;;;;6247960;22;19994;-88
2022/07/11 09:19:31;;;;;;;;;;;27.90;49.60;;;;;;6259200;23;19910;-87
2022/07/11 09:27:53;;;;;;;;;;;27.70;52.20;;;;;;6252775;23;19919;-87
2022/07/11 09:30:19;;;;;;;;;;;27.80;53.10;;;;;;6229083;23;19939;-88
2022/07/11 09:32:52;;;;;;;;;;;27.90;53.00;;;;;;6223362;23;19915;-89
2022/07/11 09:35:32;;;;;;;;;;;27.90;53.30;;;;;;6230412;23;19908;-88
2022/07/11 09:38:04;;;;;;;;;;;27.90;52.50;;;;;;6236343;23;19912;-88
2022/07/11 09:40:30;;;;;;;;;;;27.80;52.90;;;;;;6236093;23;19952;-87
2022/07/11 09:42:57;;;;;;;;;;;27.80;52.90;;;;;;6262947;22;19908;-89
2022/07/11 09:45:24;;;;;;;;;;;27.80;52.90;;;;;;6255160;22;19962;-89
2022/07/11 09:47:52;;;;;;;;;;;27.80;53.40;;;;;;6254151;23;19914;-89
2022/07/11 09:50:24;;;;;;;;;;;27.70;53.60;;;;;;6259437;22;19910;-88
2022/07/11 09:53:13;;;;;;;;;;;27.80;53.40;;;;;;6222535;23;19938;-86
2022/07/11 09:55:41;;;;;;;;;;;27.70;52.90;;;;;;6263642;22;20031;-88
2022/07/11 09:58:09;;;;;;;;;;;27.70;51.80;;;;;;6200391;23;19927;-88
2022/07/11 10:00:35;;;;;;;;;;;27.70;51.80;;;;;;6258445;22;20323;-88
2022/07/11 10:03:12;;;;;;;;;;;27.70;51.10;;;;;;6233619;23;19934;-88
2022/07/11 10:05:37;;;;;;;;;;;27.80;51.70;;;;;;6245054;22;19987;-89
2022/07/11 10:08:04;;;;;;;;;;;28.00;52.30;;;;;;6222079;23;19921;-88
2022/07/11 10:10:33;;;;;;;;;;;28.20;52.80;;;;;;6224314;23;19923;-88
2022/07/11 10:13:01;;;;;;;;;;;28.30;53.30;;;;;;6246475;23;19903;-88
2022/07/11 10:15:32;;;;;;;;;;;28.40;52.90;;;;;;6220130;23;19938;-88
2022/07/11 10:18:01;;;;;;;;;;;28.40;52.60;;;;;;6248924;23;20323;-87
2022/07/11 10:20:42;;;;;;;;;;;28.40;52.30;;;;;;6247940;22;19939;-87
2022/07/11 10:23:24;;;;;;;;;;;28.30;52.40;;;;;;6219768;23;19914;-88
2022/07/11 10:25:55;;;;;;;;;;;28.30;52.60;;;;;;6246083;22;20325;-88
2022/07/11 10:28:32;;;;;;;;;;;28.30;52.20;;;;;;6220353;23;19904;-88
2022/07/11 10:31:00;;;;;;;;;;;28.20;50.50;;;;;;6218938;23;19919;-87
2022/07/11 10:33:36;;;;;;;;;;;28.00;49.60;;;;;;6221619;23;19908;-87
2022/07/11 10:36:02;;;;;;;;;;;27.80;49.30;;;;;;6225377;23;19916;-88
2022/07/11 10:38:27;;;;;;;;;;;27.60;49.10;;;;;;6257492;23;19903;-88
2022/07/11 10:40:54;;;;;;;;;;;27.50;48.90;;;;;;6250128;23;20030;-88
2022/07/11 10:43:22;;;;;;;;;;;27.30;49.10;;;;;;6223279;23;19904;-89
2022/07/11 10:46:06;;;;;;;;;;;27.20;49.80;;;;;;6226288;23;19918;-89
2022/07/11 10:48:35;;;;;;;;;;;27.20;50.80;;;;;;6222114;23;20009;-89
2022/07/11 10:51:01;;;;;;;;;;;27.40;51.10;;;;;;6248218;22;19915;-90
2022/07/11 10:53:30;;;;;;;;;;;27.70;50.90;;;;;;6245524;23;19903;-89
2022/07/11 10:56:08;;;;;;;;;;;28.10;50.80;;;;;;6246584;22;20279;-90
2022/07/11 10:58:40;;;;;;;;;;;28.40;49.20;;;;;;6251937;23;19910;-89
2022/07/11 11:01:11;;;;;;;;;;;28.60;48.70;;;;;;6247712;23;19915;-87
2022/07/11 11:03:37;;;;;;;;;;;28.70;47.80;;;;;;6220390;23;20308;-88
2022/07/11 11:06:03;;;;;;;;;;;28.70;47.40;;;;;;6246513;22;19912;-87
2022/07/11 11:08:31;;;;;;;;;;;28.80;46.70;;;;;;6245266;23;20018;-88
2022/07/11 11:10:57;;;;;;;;;;;28.90;47.70;;;;;;6219702;23;20251;-88
2022/07/11 11:13:23;;;;;;;;;;;29.10;47.50;;;;;;6217931;23;19998;-88
2022/07/11 11:15:49;;;;;;;;;;;29.30;46.90;;;;;;6218611;23;19915;-87
2022/07/11 11:18:24;;;;;;;;;;;29.30;46.20;;;;;;6247159;23;20224;-88
2022/07/11 11:20:59;;;;;;;;;;;29.40;46.70;;;;;;6229236;23;19914;-88
2022/07/11 11:23:26;;;;;;;;;;;29.50;46.90;;;;;;6222937;23;19912;-89
2022/07/11 11:25:52;;;;;;;;;;;29.60;46.80;;;;;;6221155;23;20240;-87
2022/07/11 11:28:24;;;;;;;;;;;29.70;46.50;;;;;;6220186;23;19959;-88
2022/07/11 11:30:53;;;;;;;;;;;29.60;46.10;;;;;;6247155;23;19954;-89
2022/07/11 11:33:19;;;;;;;;;;;29.60;45.60;;;;;;6246563;22;19994;-88
2022/07/11 11:35:45;;;;;;;;;;;29.50;46.10;;;;;;6244070;23;19946;-88
2022/07/11 11:38:11;;;;;;;;;;;29.50;45.30;;;;;;6245479;22;19927;-88
2022/07/11 11:40:48;;;;;;;;;;;29.30;45.30;;;;;;6252904;23;19911;-88
2022/07/11 11:43:18;;;;;;;;;;;29.10;45.30;;;;;;6230153;23;19966;-88
2022/07/11 11:45:47;;;;;;;;;;;29.00;45.90;;;;;;6247172;23;19915;-87
2022/07/11 11:48:25;;;;;;;;;;;29.00;45.80;;;;;;6220739;23;19919;-88
2022/07/11 11:50:51;;;;;;;;;;;29.10;46.00;;;;;;6246649;23;19910;-88
2022/07/11 11:53:16;;;;;;;;;;;29.20;46.20;;;;;;6245876;23;19943;-87
2022/07/11 11:55:42;;;;;;;;;;;29.30;45.80;;;;;;6244139;23;19911;-88
2022/07/11 11:58:07;;;;;;;;;;;29.30;45.50;;;;;;6245018;23;20393;-88
2022/07/11 12:00:34;;;;;;;;;;;29.40;45.40;;;;;;6219921;23;20728;-89
2022/07/11 12:03:01;;;;;;;;;;;29.30;45.00;;;;;;6225489;23;19912;-89
2022/07/11 12:05:29;;;;;;;;;;;29.30;44.90;;;;;;6225452;23;19908;-89
2022/07/11 12:07:55;;;;;;;;;;;29.10;44.10;;;;;;6251386;23;19915;-87
2022/07/11 12:10:20;;;;;;;;;;;28.90;44.00;;;;;;6247071;23;20027;-88
2022/07/11 12:12:47;;;;;;;;;;;28.70;43.40;;;;;;6222098;23;20217;-89
2022/07/11 12:15:22;;;;;;;;;;;28.50;43.60;;;;;;6245445;23;19907;-88
2022/07/11 12:17:49;;;;;;;;;;;28.30;43.50;;;;;;6246457;22;19911;-88
2022/07/11 12:20:32;;;;;;;;;;;28.00;43.80;;;;;;6246034;23;19995;-88
2022/07/11 12:22:57;;;;;;;;;;;27.90;44.60;;;;;;6223789;23;19912;-88
2022/07/11 12:25:24;;;;;;;;;;;27.80;45.10;;;;;;6258148;23;19912;-87
2022/07/11 12:27:55;;;;;;;;;;;27.80;45.00;;;;;;6253503;23;19917;-88
2022/07/11 12:30:23;;;;;;;;;;;27.80;45.30;;;;;;6248200;23;19911;-89
2022/07/11 12:33:08;;;;;;;;;;;27.80;45.50;;;;;;6246950;23;19959;-89
2022/07/11 12:35:34;;;;;;;;;;;27.90;45.50;;;;;;6222128;23;19927;-89
2022/07/11 12:38:00;;;;;;;;;;;28.10;45.70;;;;;;6248817;22;20355;-89
2022/07/11 12:40:25;;;;;;;;;;;28.30;45.20;;;;;;6246760;23;20032;-89
2022/07/11 12:42:51;;;;;;;;;;;28.50;44.70;;;;;;6245912;23;19915;-89
2022/07/11 12:45:17;;;;;;;;;;;28.70;44.30;;;;;;6251584;23;20300;-88
2022/07/11 12:47:44;;;;;;;;;;;28.80;44.30;;;;;;6258619;22;19923;-89
2022/07/11 12:50:28;;;;;;;;;;;28.80;44.40;;;;;;6226553;23;19928;-87
2022/07/11 12:52:55;;;;;;;;;;;28.70;44.40;;;;;;6196613;23;19919;-87
2022/07/11 12:55:24;;;;;;;;;;;28.70;44.30;;;;;;6250079;22;20344;-88
2022/07/11 12:58:02;;;;;;;;;;;28.50;44.50;;;;;;6250613;23;19904;-88
2022/07/11 13:00:28;;;;;;;;;;;28.40;44.90;;;;;;6220625;23;19911;-89
2022/07/11 13:02:55;;;;;;;;;;;28.40;44.90;;;;;;6194535;23;19945;-89
2022/07/11 13:05:21;;;;;;;;;;;28.40;44.90;;;;;;6221725;23;20205;-88
2022/07/11 13:11:03;;;;;;;;;;;28.40;44.00;;;;;;6260178;23;19977;-89
2022/07/11 13:13:29;;;;;;;;;;;28.30;44.00;;;;;;6224634;23;19939;-90
2022/07/11 13:15:54;;;;;;;;;;;28.40;44.30;;;;;;6222918;23;19916;-89
2022/07/11 13:18:20;;;;;;;;;;;28.60;44.60;;;;;;6248043;23;19922;-87
2022/07/11 13:20:45;;;;;;;;;;;28.70;44.20;;;;;;6221669;23;19995;-89
2022/07/11 13:23:17;;;;;;;;;;;28.70;43.90;;;;;;6248053;23;20316;-89
2022/07/11 13:25:45;;;;;;;;;;;28.70;43.80;;;;;;6247775;23;20455;-89
2022/07/11 13:28:11;;;;;;;;;;;28.70;44.20;;;;;;6255516;22;19912;-89
2022/07/11 13:30:37;;;;;;;;;;;28.60;44.00;;;;;;6229118;23;19947;-88
2022/07/11 13:33:03;;;;;;;;;;;28.50;44.30;;;;;;6222251;23;19935;-89
2022/07/11 13:35:28;;;;;;;;;;;28.30;44.60;;;;;;6248592;23;19915;-88
2022/07/11 13:37:54;;;;;;;;;;;28.10;45.20;;;;;;6246474;23;19934;-89
2022/07/11 13:40:21;;;;;;;;;;;27.90;45.80;;;;;;6246260;23;19916;-88
2022/07/11 13:42:48;;;;;;;;;;;27.80;46.20;;;;;;6193569;23;19915;-89
2022/07/11 13:45:15;;;;;;;;;;;27.80;46.50;;;;;;6245273;23;19912;-88
2022/07/11 13:47:42;;;;;;;;;;;27.80;46.60;;;;;;6246858;22;19943;-87
2022/07/11 13:50:15;;;;;;;;;;;27.90;46.60;;;;;;6236092;23;19927;-88
2022/07/11 13:52:48;;;;;;;;;;;28.00;46.20;;;;;;6235357;23;19922;-87
2022/07/11 13:55:17;;;;;;;;;;;28.00;46.10;;;;;;6260184;23;19923;-84
2022/07/11 13:57:43;;;;;;;;;;;28.00;46.40;;;;;;6223397;23;19939;-90
2022/07/11 14:00:09;;;;;;;;;;;27.80;45.80;;;;;;6246210;23;20343;-88
2022/07/11 14:02:36;;;;;;;;;;;27.70;45.50;;;;;;6247519;23;19915;-88
2022/07/11 14:05:01;;;;;;;;;;;27.50;46.30;;;;;;6221841;23;19938;-89
2022/07/11 14:07:29;;;;;;;;;;;27.50;46.70;;;;;;6194935;23;19916;-88
2022/07/11 14:09:54;;;;;;;;;;;27.50;46.50;;;;;;6224605;23;19903;-87
2022/07/11 14:12:20;;;;;;;;;;;27.50;46.10;;;;;;6223952;23;19938;-87
2022/07/11 14:14:46;;;;;;;;;;;27.60;46.00;;;;;;6222241;23;19912;-88
2022/07/11 14:17:13;;;;;;;;;;;27.70;45.80;;;;;;6247879;22;19911;-88
2022/07/11 14:19:40;;;;;;;;;;;27.80;45.70;;;;;;6248166;23;20240;-89
2022/07/11 14:22:06;;;;;;;;;;;27.80;45.10;;;;;;6247680;23;19920;-88
2022/07/11 14:24:31;;;;;;;;;;;27.90;45.30;;;;;;6222838;23;19954;-89
2022/07/11 14:26:57;;;;;;;;;;;27.90;45.20;;;;;;6247725;23;19911;-88
2022/07/11 14:29:23;;;;;;;;;;;27.90;45.40;;;;;;6222079;23;19919;-88
2022/07/11 14:31:56;;;;;;;;;;;27.90;45.10;;;;;;6220495;23;19970;-88